sensor_id;sensor_type;location;lat;lon;timestamp;pressure;altitude;pressure_sealevel;temperature;humidity
53900;BME280;40509;32.858;-116.858;2023-08-07T00:01:14;97905.69;;;29.43;41.26
53900;BME280;40509;32.858;-116.858;2023-08-07T00:03:41;97893.44;;;29.42;41.45
53900;BME280;40509;32.858;-116.858;2023-08-07T00:06:08;97889.34;;;29.47;41.46
53900;BME280;40509;32.858;-116.858;2023-08-07T00:08:35;97893.22;;;29.44;41.48
53900;BME280;40509;32.858;-116.858;2023-08-07T00:11:07;97896.47;;;29.46;41.42
53900;BME280;40509;32.858;-116.858;2023-08-07T00:13:35;97898.13;;;29.47;41.57
53900;BME280;40509;32.858;-116.858;2023-08-07T00:16:03;97894.66;;;29.47;41.57
53900;BME280;40509;32.858;-116.858;2023-08-07T00:18:30;97894.66;;;29.47;41.60
53900;BME280;40509;32.858;-116.858;2023-08-07T00:20:57;97897.09;;;29.48;41.63
53900;BME280;40509;32.858;-116.858;2023-08-07T00:23:24;97893.44;;;29.49;41.59
53900;BME280;40509;32.858;-116.858;2023-08-07T00:25:51;97892.19;;;29.52;41.39
53900;BME280;40509;32.858;-116.858;2023-08-07T00:28:18;97889.72;;;29.50;41.57
53900;BME280;40509;32.858;-116.858;2023-08-07T00:30:44;97887.91;;;29.51;41.62
53900;BME280;40509;32.858;-116.858;2023-08-07T00:33:12;97893.00;;;29.52;41.54
53900;BME280;40509;32.858;-116.858;2023-08-07T00:35:38;97898.34;;;29.52;41.67
53900;BME280;40509;32.858;-116.858;2023-08-07T00:38:05;97892.59;;;29.55;41.56
53900;BME280;40509;32.858;-116.858;2023-08-07T00:40:36;97888.13;;;29.56;41.68
53900;BME280;40509;32.858;-116.858;2023-08-07T00:43:05;97893.00;;;29.52;41.74
53900;BME280;40509;32.858;-116.858;2023-08-07T00:45:35;97891.78;;;29.55;41.66
53900;BME280;40509;32.858;-116.858;2023-08-07T00:48:04;97891.16;;;29.53;41.83
53900;BME280;40509;32.858;-116.858;2023-08-07T00:50:32;97893.44;;;29.56;41.76
53900;BME280;40509;32.858;-116.858;2023-08-07T00:52:59;97890.78;;;29.56;41.75
53900;BME280;40509;32.858;-116.858;2023-08-07T00:55:27;97883.59;;;29.56;41.81
53900;BME280;40509;32.858;-116.858;2023-08-07T00:57:56;97885.25;;;29.57;41.80
53900;BME280;40509;32.858;-116.858;2023-08-07T01:00:25;97884.03;;;29.60;41.83
53900;BME280;40509;32.858;-116.858;2023-08-07T01:02:52;97890.97;;;29.61;41.77
53900;BME280;40509;32.858;-116.858;2023-08-07T01:05:20;97892.00;;;29.60;42.00
53900;BME280;40509;32.858;-116.858;2023-08-07T01:07:47;97894.66;;;29.60;41.72
53900;BME280;40509;32.858;-116.858;2023-08-07T01:10:17;97893.63;;;29.61;41.75
53900;BME280;40509;32.858;-116.858;2023-08-07T01:12:48;97887.28;;;29.62;41.77
53900;BME280;40509;32.858;-116.858;2023-08-07T01:15:25;97893.81;;;29.59;41.78
53900;BME280;40509;32.858;-116.858;2023-08-07T01:17:57;97891.59;;;29.63;41.93
53900;BME280;40509;32.858;-116.858;2023-08-07T01:20:25;97893.03;;;29.66;41.73
53900;BME280;40509;32.858;-116.858;2023-08-07T01:22:52;97889.72;;;29.64;42.04
53900;BME280;40509;32.858;-116.858;2023-08-07T01:25:19;97896.69;;;29.65;41.95
53900;BME280;40509;32.858;-116.858;2023-08-07T01:30:38;97900.16;;;29.65;42.14
53900;BME280;40509;32.858;-116.858;2023-08-07T01:33:09;97900.16;;;29.65;42.10
53900;BME280;40509;32.858;-116.858;2023-08-07T01:35:41;97897.13;;;29.68;41.82
53900;BME280;40509;32.858;-116.858;2023-08-07T01:38:11;97898.94;;;29.68;42.10
53900;BME280;40509;32.858;-116.858;2023-08-07T01:40:40;97897.50;;;29.65;42.02
53900;BME280;40509;32.858;-116.858;2023-08-07T01:43:07;97899.94;;;29.67;41.98
53900;BME280;40509;32.858;-116.858;2023-08-07T01:45:34;97901.59;;;29.68;41.94
53900;BME280;40509;32.858;-116.858;2023-08-07T01:48:01;97904.88;;;29.70;41.92
53900;BME280;40509;32.858;-116.858;2023-08-07T01:50:28;97897.91;;;29.69;41.97
53900;BME280;40509;32.858;-116.858;2023-08-07T01:52:56;97902.22;;;29.70;41.95
53900;BME280;40509;32.858;-116.858;2023-08-07T01:55:23;97904.25;;;29.68;41.94
53900;BME280;40509;32.858;-116.858;2023-08-07T01:57:51;97908.97;;;29.72;41.83
53900;BME280;40509;32.858;-116.858;2023-08-07T02:00:18;97913.47;;;29.72;42.09
53900;BME280;40509;32.858;-116.858;2023-08-07T02:02:45;97914.91;;;29.68;41.93
53900;BME280;40509;32.858;-116.858;2023-08-07T02:05:13;97916.75;;;29.67;42.01
53900;BME280;40509;32.858;-116.858;2023-08-07T02:07:40;97914.69;;;29.69;41.94
53900;BME280;40509;32.858;-116.858;2023-08-07T02:10:07;97917.16;;;29.71;42.04
53900;BME280;40509;32.858;-116.858;2023-08-07T02:12:36;97915.91;;;29.67;42.04
53900;BME280;40509;32.858;-116.858;2023-08-07T02:15:03;97921.06;;;29.68;42.18
53900;BME280;40509;32.858;-116.858;2023-08-07T02:17:31;97924.53;;;29.69;42.23
53900;BME280;40509;32.858;-116.858;2023-08-07T02:19:58;97933.72;;;29.66;42.11
53900;BME280;40509;32.858;-116.858;2023-08-07T02:22:26;97930.66;;;29.69;42.08
53900;BME280;40509;32.858;-116.858;2023-08-07T02:24:53;97938.03;;;29.74;42.15
53900;BME280;40509;32.858;-116.858;2023-08-07T02:27:20;97939.69;;;29.75;42.11
53900;BME280;40509;32.858;-116.858;2023-08-07T02:29:46;97942.72;;;29.72;42.19
53900;BME280;40509;32.858;-116.858;2023-08-07T02:32:13;97950.72;;;29.72;42.03
53900;BME280;40509;32.858;-116.858;2023-08-07T02:34:40;97949.69;;;29.73;42.13
53900;BME280;40509;32.858;-116.858;2023-08-07T02:37:07;97944.78;;;29.70;42.21
53900;BME280;40509;32.858;-116.858;2023-08-07T02:39:40;97951.13;;;29.69;42.29
53900;BME280;40509;32.858;-116.858;2023-08-07T02:42:12;97951.13;;;29.69;42.24
53900;BME280;40509;32.858;-116.858;2023-08-07T02:44:54;97956.88;;;29.66;42.36
53900;BME280;40509;32.858;-116.858;2023-08-07T02:47:21;97952.34;;;29.66;42.49
53900;BME280;40509;32.858;-116.858;2023-08-07T02:49:48;97958.47;;;29.67;42.34
53900;BME280;40509;32.858;-116.858;2023-08-07T02:52:15;97966.28;;;29.68;42.29
53900;BME280;40509;32.858;-116.858;2023-08-07T02:54:42;97971.78;;;29.67;42.38
53900;BME280;40509;32.858;-116.858;2023-08-07T02:57:09;97976.94;;;29.68;42.33
53900;BME280;40509;32.858;-116.858;2023-08-07T02:59:36;97977.09;;;29.67;42.51
53900;BME280;40509;32.858;-116.858;2023-08-07T03:02:03;97981.81;;;29.65;42.55
53900;BME280;40509;32.858;-116.858;2023-08-07T03:04:30;97991.66;;;29.64;42.55
53900;BME280;40509;32.858;-116.858;2023-08-07T03:06:56;97991.44;;;29.66;42.48
53900;BME280;40509;32.858;-116.858;2023-08-07T03:09:24;97992.47;;;29.65;42.49
53900;BME280;40509;32.858;-116.858;2023-08-07T03:11:50;97998.38;;;29.67;42.48
53900;BME280;40509;32.858;-116.858;2023-08-07T03:14:17;97997.78;;;29.65;42.66
53900;BME280;40509;32.858;-116.858;2023-08-07T03:16:44;97995.75;;;29.60;42.67
53900;BME280;40509;32.858;-116.858;2023-08-07T03:19:11;97999.81;;;29.63;42.57
53900;BME280;40509;32.858;-116.858;2023-08-07T03:21:38;98005.97;;;29.63;42.55
53900;BME280;40509;32.858;-116.858;2023-08-07T03:24:05;98001.66;;;29.62;42.57
53900;BME280;40509;32.858;-116.858;2023-08-07T03:26:33;98007.19;;;29.60;42.74
53900;BME280;40509;32.858;-116.858;2023-08-07T03:29:00;98007.78;;;29.63;42.52
53900;BME280;40509;32.858;-116.858;2023-08-07T03:31:27;98012.50;;;29.60;42.74
53900;BME280;40509;32.858;-116.858;2023-08-07T03:33:54;98011.72;;;29.60;42.53
53900;BME280;40509;32.858;-116.858;2023-08-07T03:36:22;98016.19;;;29.59;42.62
53900;BME280;40509;32.858;-116.858;2023-08-07T03:38:49;98020.91;;;29.57;42.78
53900;BME280;40509;32.858;-116.858;2023-08-07T03:41:16;98019.88;;;29.58;42.81
53900;BME280;40509;32.858;-116.858;2023-08-07T03:43:43;98027.66;;;29.60;42.81
53900;BME280;40509;32.858;-116.858;2023-08-07T03:46:10;98028.69;;;29.59;42.75
53900;BME280;40509;32.858;-116.858;2023-08-07T03:48:38;98030.50;;;29.58;42.81
53900;BME280;40509;32.858;-116.858;2023-08-07T03:51:05;98036.03;;;29.57;42.83
53900;BME280;40509;32.858;-116.858;2023-08-07T03:53:39;98035.00;;;29.58;42.89
53900;BME280;40509;32.858;-116.858;2023-08-07T03:56:05;98047.50;;;29.57;43.05
53900;BME280;40509;32.858;-116.858;2023-08-07T03:58:34;98044.00;;;29.57;42.85
53900;BME280;40509;32.858;-116.858;2023-08-07T04:01:02;98048.53;;;29.56;43.04
53900;BME280;40509;32.858;-116.858;2023-08-07T04:03:29;98044.00;;;29.57;42.96
53900;BME280;40509;32.858;-116.858;2023-08-07T04:05:56;98052.19;;;29.55;42.99
53900;BME280;40509;32.858;-116.858;2023-08-07T04:08:23;98048.09;;;29.53;43.06
53900;BME280;40509;32.858;-116.858;2023-08-07T04:11:00;98053.44;;;29.59;42.94
53900;BME280;40509;32.858;-116.858;2023-08-07T04:13:27;98062.22;;;29.53;42.98
53900;BME280;40509;32.858;-116.858;2023-08-07T04:15:54;98062.03;;;29.55;42.98
53900;BME280;40509;32.858;-116.858;2023-08-07T04:18:21;98057.91;;;29.52;43.11
53900;BME280;40509;32.858;-116.858;2023-08-07T04:20:49;98062.84;;;29.55;42.66
53900;BME280;40509;32.858;-116.858;2023-08-07T04:23:16;98053.81;;;29.50;43.00
53900;BME280;40509;32.858;-116.858;2023-08-07T04:25:43;98069.13;;;29.48;43.18
53900;BME280;40509;32.858;-116.858;2023-08-07T04:28:10;98065.25;;;29.50;43.02
53900;BME280;40509;32.858;-116.858;2023-08-07T04:30:37;98066.31;;;29.49;43.13
53900;BME280;40509;32.858;-116.858;2023-08-07T04:33:04;98064.66;;;29.48;43.14
53900;BME280;40509;32.858;-116.858;2023-08-07T04:35:31;98066.09;;;29.44;43.22
53900;BME280;40509;32.858;-116.858;2023-08-07T04:37:58;98060.75;;;29.44;43.28
53900;BME280;40509;32.858;-116.858;2023-08-07T04:40:25;98062.41;;;29.45;43.17
53900;BME280;40509;32.858;-116.858;2023-08-07T04:42:52;98057.47;;;29.42;43.42
53900;BME280;40509;32.858;-116.858;2023-08-07T04:45:19;98059.13;;;29.43;43.28
53900;BME280;40509;32.858;-116.858;2023-08-07T04:47:45;98060.13;;;29.42;43.49
53900;BME280;40509;32.858;-116.858;2023-08-07T04:50:12;98065.66;;;29.47;43.24
53900;BME280;40509;32.858;-116.858;2023-08-07T04:52:39;98067.09;;;29.43;43.48
53900;BME280;40509;32.858;-116.858;2023-08-07T04:55:06;98067.72;;;29.45;43.21
53900;BME280;40509;32.858;-116.858;2023-08-07T04:57:33;98063.78;;;29.41;43.15
53900;BME280;40509;32.858;-116.858;2023-08-07T04:59:59;98074.06;;;29.44;43.35
53900;BME280;40509;32.858;-116.858;2023-08-07T05:02:26;98077.31;;;29.46;43.12
53900;BME280;40509;32.858;-116.858;2023-08-07T05:04:53;98082.03;;;29.44;43.19
53900;BME280;40509;32.858;-116.858;2023-08-07T05:07:20;98079.59;;;29.42;43.25
53900;BME280;40509;32.858;-116.858;2023-08-07T05:09:47;98080.81;;;29.47;43.08
53900;BME280;40509;32.858;-116.858;2023-08-07T05:12:15;98081.19;;;29.43;43.16
53900;BME280;40509;32.858;-116.858;2023-08-07T05:14:43;98081.41;;;29.42;43.27
53900;BME280;40509;32.858;-116.858;2023-08-07T05:17:09;98084.06;;;29.42;43.27
53900;BME280;40509;32.858;-116.858;2023-08-07T05:19:38;98074.44;;;29.41;43.33
53900;BME280;40509;32.858;-116.858;2023-08-07T05:22:05;98082.41;;;29.41;43.29
53900;BME280;40509;32.858;-116.858;2023-08-07T05:24:32;98075.84;;;29.37;43.11
53900;BME280;40509;32.858;-116.858;2023-08-07T05:27:08;98083.22;;;29.35;43.42
53900;BME280;40509;32.858;-116.858;2023-08-07T05:29:35;98080.56;;;29.35;43.31
53900;BME280;40509;32.858;-116.858;2023-08-07T05:32:10;98074.63;;;29.33;43.47
53900;BME280;40509;32.858;-116.858;2023-08-07T05:34:38;98083.22;;;29.35;43.34
53900;BME280;40509;32.858;-116.858;2023-08-07T05:37:05;98081.38;;;29.35;43.45
53900;BME280;40509;32.858;-116.858;2023-08-07T05:39:32;98085.25;;;29.33;43.42
53900;BME280;40509;32.858;-116.858;2023-08-07T05:41:59;98082.78;;;29.31;43.32
53900;BME280;40509;32.858;-116.858;2023-08-07T05:44:26;98084.84;;;29.29;43.20
53900;BME280;40509;32.858;-116.858;2023-08-07T05:46:54;98087.31;;;29.31;43.36
53900;BME280;40509;32.858;-116.858;2023-08-07T05:49:20;98086.28;;;29.32;43.30
53900;BME280;40509;32.858;-116.858;2023-08-07T05:51:48;98084.84;;;29.29;43.61
53900;BME280;40509;32.858;-116.858;2023-08-07T05:54:15;98089.31;;;29.29;43.54
53900;BME280;40509;32.858;-116.858;2023-08-07T05:56:43;98089.16;;;29.30;43.34
53900;BME280;40509;32.858;-116.858;2023-08-07T05:59:10;98090.16;;;29.29;43.47
53900;BME280;40509;32.858;-116.858;2023-08-07T06:01:37;98095.84;;;29.26;43.39
53900;BME280;40509;32.858;-116.858;2023-08-07T06:04:03;98097.06;;;29.23;43.62
53900;BME280;40509;32.858;-116.858;2023-08-07T06:06:30;98103.19;;;29.24;43.52
53900;BME280;40509;32.858;-116.858;2023-08-07T06:09:00;98097.22;;;29.22;43.44
53900;BME280;40509;32.858;-116.858;2023-08-07T06:11:29;98101.13;;;29.19;43.46
53900;BME280;40509;32.858;-116.858;2023-08-07T06:13:56;98101.13;;;29.19;43.58
53900;BME280;40509;32.858;-116.858;2023-08-07T06:16:23;98099.69;;;29.17;43.53
53900;BME280;40509;32.858;-116.858;2023-08-07T06:18:49;98102.50;;;29.15;43.63
53900;BME280;40509;32.858;-116.858;2023-08-07T06:21:16;98102.16;;;29.18;43.36
53900;BME280;40509;32.858;-116.858;2023-08-07T06:23:43;98104.16;;;29.16;43.43
53900;BME280;40509;32.858;-116.858;2023-08-07T06:26:10;98112.94;;;29.10;43.55
53900;BME280;40509;32.858;-116.858;2023-08-07T06:28:37;98106.38;;;29.06;43.70
53900;BME280;40509;32.858;-116.858;2023-08-07T06:31:06;98111.09;;;29.10;43.57
53900;BME280;40509;32.858;-116.858;2023-08-07T06:33:33;98105.97;;;29.09;43.64
53900;BME280;40509;32.858;-116.858;2023-08-07T06:36:00;98107.63;;;29.10;43.41
53900;BME280;40509;32.858;-116.858;2023-08-07T06:38:27;98102.88;;;29.05;43.64
53900;BME280;40509;32.858;-116.858;2023-08-07T06:40:55;98112.94;;;29.10;43.69
53900;BME280;40509;32.858;-116.858;2023-08-07T06:43:21;98117.00;;;29.06;43.53
53900;BME280;40509;32.858;-116.858;2023-08-07T06:45:49;98110.09;;;29.12;43.41
53900;BME280;40509;32.858;-116.858;2023-08-07T06:48:17;98110.28;;;29.10;43.47
53900;BME280;40509;32.858;-116.858;2023-08-07T06:50:46;98112.50;;;29.06;43.33
53900;BME280;40509;32.858;-116.858;2023-08-07T06:53:13;98111.50;;;29.07;43.52
53900;BME280;40509;32.858;-116.858;2023-08-07T06:55:40;98108.34;;;28.97;43.45
53900;BME280;40509;32.858;-116.858;2023-08-07T06:58:08;98104.09;;;29.03;43.52
53900;BME280;40509;32.858;-116.858;2023-08-07T07:00:35;98110.25;;;29.03;43.48
53900;BME280;40509;32.858;-116.858;2023-08-07T07:03:02;98109.59;;;29.01;43.62
53900;BME280;40509;32.858;-116.858;2023-08-07T07:05:29;98098.16;;;29.01;43.55
53900;BME280;40509;32.858;-116.858;2023-08-07T07:07:57;98102.22;;;28.97;43.72
53900;BME280;40509;32.858;-116.858;2023-08-07T07:10:23;98103.56;;;28.79;43.64
53900;BME280;40509;32.858;-116.858;2023-08-07T07:12:50;98099.78;;;27.80;44.48
53900;BME280;40509;32.858;-116.858;2023-08-07T07:15:18;98097.41;;;27.49;44.38
53900;BME280;40509;32.858;-116.858;2023-08-07T07:17:45;98091.59;;;27.60;43.14
53900;BME280;40509;32.858;-116.858;2023-08-07T07:20:12;98092.47;;;27.46;42.20
53900;BME280;40509;32.858;-116.858;2023-08-07T07:22:39;98092.91;;;27.19;41.50
53900;BME280;40509;32.858;-116.858;2023-08-07T07:25:06;98089.19;;;26.84;40.95
53900;BME280;40509;32.858;-116.858;2023-08-07T07:27:33;98093.75;;;26.52;41.25
53900;BME280;40509;32.858;-116.858;2023-08-07T07:30:00;98083.41;;;26.95;41.10
53900;BME280;40509;32.858;-116.858;2023-08-07T07:32:29;98085.78;;;27.35;40.86
53900;BME280;40509;32.858;-116.858;2023-08-07T07:34:56;98086.53;;;27.43;39.93
53900;BME280;40509;32.858;-116.858;2023-08-07T07:37:23;98088.91;;;27.38;39.63
53900;BME280;40509;32.858;-116.858;2023-08-07T07:39:50;98085.25;;;27.39;39.86
53900;BME280;40509;32.858;-116.858;2023-08-07T07:42:17;98085.78;;;27.35;39.57
53900;BME280;40509;32.858;-116.858;2023-08-07T07:44:44;98081.88;;;27.46;39.72
53900;BME280;40509;32.858;-116.858;2023-08-07T07:47:11;98080.91;;;27.53;39.29
53900;BME280;40509;32.858;-116.858;2023-08-07T07:49:38;98080.22;;;27.45;39.23
53900;BME280;40509;32.858;-116.858;2023-08-07T07:52:06;98082.38;;;27.56;39.22
53900;BME280;40509;32.858;-116.858;2023-08-07T07:54:33;98082.50;;;27.48;39.28
53900;BME280;40509;32.858;-116.858;2023-08-07T07:57:00;98078.44;;;27.52;39.03
53900;BME280;40509;32.858;-116.858;2023-08-07T07:59:27;98078.84;;;27.49;38.37
53900;BME280;40509;32.858;-116.858;2023-08-07T08:01:54;98075.91;;;27.43;38.93
53900;BME280;40509;32.858;-116.858;2023-08-07T08:04:21;98065.84;;;27.54;38.46
53900;BME280;40509;32.858;-116.858;2023-08-07T08:06:48;98068.22;;;27.49;38.50
53900;BME280;40509;32.858;-116.858;2023-08-07T08:09:15;98068.16;;;27.42;38.05
53900;BME280;40509;32.858;-116.858;2023-08-07T08:11:43;98068.84;;;27.36;38.24
53900;BME280;40509;32.858;-116.858;2023-08-07T08:14:09;98066.59;;;27.48;38.31
53900;BME280;40509;32.858;-116.858;2023-08-07T08:17:01;98060.09;;;27.35;37.88
53900;BME280;40509;32.858;-116.858;2023-08-07T08:19:28;98060.75;;;27.37;37.63
53900;BME280;40509;32.858;-116.858;2023-08-07T08:21:55;98060.38;;;27.25;38.19
53900;BME280;40509;32.858;-116.858;2023-08-07T08:24:22;98058.25;;;27.36;38.22
53900;BME280;40509;32.858;-116.858;2023-08-07T08:26:49;98053.06;;;27.27;38.16
53900;BME280;40509;32.858;-116.858;2023-08-07T08:29:16;98049.78;;;27.40;37.66
53900;BME280;40509;32.858;-116.858;2023-08-07T08:31:43;98047.13;;;27.40;37.82
53900;BME280;40509;32.858;-116.858;2023-08-07T08:34:09;98043.91;;;27.30;37.29
53900;BME280;40509;32.858;-116.858;2023-08-07T08:36:36;98046.47;;;27.23;37.17
53900;BME280;40509;32.858;-116.858;2023-08-07T08:39:03;98044.66;;;27.24;37.31
53900;BME280;40509;32.858;-116.858;2023-08-07T08:41:31;98046.69;;;27.37;37.23
53900;BME280;40509;32.858;-116.858;2023-08-07T08:43:58;98038.91;;;27.20;37.52
53900;BME280;40509;32.858;-116.858;2023-08-07T08:46:26;98041.75;;;27.19;37.20
53900;BME280;40509;32.858;-116.858;2023-08-07T08:48:56;98034.25;;;27.07;37.50
53900;BME280;40509;32.858;-116.858;2023-08-07T08:51:24;98032.97;;;27.03;36.95
53900;BME280;40509;32.858;-116.858;2023-08-07T08:53:52;98032.84;;;27.26;36.99
53900;BME280;40509;32.858;-116.858;2023-08-07T08:56:20;98033.34;;;27.15;35.92
53900;BME280;40509;32.858;-116.858;2023-08-07T08:58:51;98031.06;;;27.12;35.99
53900;BME280;40509;32.858;-116.858;2023-08-07T09:01:19;98025.00;;;27.18;36.53
53900;BME280;40509;32.858;-116.858;2023-08-07T09:03:46;98022.00;;;27.21;36.69
53900;BME280;40509;32.858;-116.858;2023-08-07T09:06:14;98020.88;;;27.31;36.78
53900;BME280;40509;32.858;-116.858;2023-08-07T09:08:42;98024.81;;;27.35;37.09
53900;BME280;40509;32.858;-116.858;2023-08-07T09:11:12;98023.16;;;27.34;37.18
53900;BME280;40509;32.858;-116.858;2023-08-07T09:13:39;98019.69;;;27.33;37.18
53900;BME280;40509;32.858;-116.858;2023-08-07T09:16:07;98019.34;;;27.36;37.05
53900;BME280;40509;32.858;-116.858;2023-08-07T09:18:35;98011.56;;;27.35;37.52
53900;BME280;40509;32.858;-116.858;2023-08-07T09:21:02;98011.72;;;27.33;37.41
53900;BME280;40509;32.858;-116.858;2023-08-07T09:23:29;98011.03;;;27.39;37.56
53900;BME280;40509;32.858;-116.858;2023-08-07T09:26:00;98010.44;;;27.44;37.78
53900;BME280;40509;32.858;-116.858;2023-08-07T09:28:28;97997.13;;;27.37;37.88
53900;BME280;40509;32.858;-116.858;2023-08-07T09:30:56;98002.88;;;27.41;37.99
53900;BME280;40509;32.858;-116.858;2023-08-07T09:33:26;97993.00;;;27.35;37.94
53900;BME280;40509;32.858;-116.858;2023-08-07T09:35:57;97998.97;;;27.37;38.20
53900;BME280;40509;32.858;-116.858;2023-08-07T09:38:27;97995.50;;;27.36;38.02
53900;BME280;40509;32.858;-116.858;2023-08-07T09:41:01;97980.75;;;27.34;38.37
53900;BME280;40509;32.858;-116.858;2023-08-07T09:43:33;97989.81;;;27.39;38.50
53900;BME280;40509;32.858;-116.858;2023-08-07T09:46:03;97986.97;;;27.41;38.30
53900;BME280;40509;32.858;-116.858;2023-08-07T09:48:31;97982.66;;;27.40;38.76
53900;BME280;40509;32.858;-116.858;2023-08-07T09:51:01;97978.72;;;27.36;38.65
53900;BME280;40509;32.858;-116.858;2023-08-07T09:53:30;97982.41;;;27.35;38.75
53900;BME280;40509;32.858;-116.858;2023-08-07T09:55:58;97974.28;;;27.36;38.34
53900;BME280;40509;32.858;-116.858;2023-08-07T09:58:25;97976.56;;;27.39;38.74
53900;BME280;40509;32.858;-116.858;2023-08-07T10:00:52;97970.97;;;27.34;38.51
53900;BME280;40509;32.858;-116.858;2023-08-07T10:03:19;97975.47;;;27.34;38.67
53900;BME280;40509;32.858;-116.858;2023-08-07T10:05:46;97969.16;;;27.35;38.67
53900;BME280;40509;32.858;-116.858;2023-08-07T10:08:13;97966.84;;;27.32;38.43
53900;BME280;40509;32.858;-116.858;2023-08-07T10:10:40;97966.84;;;27.32;38.83
53900;BME280;40509;32.858;-116.858;2023-08-07T10:13:07;97962.19;;;27.34;39.13
53900;BME280;40509;32.858;-116.858;2023-08-07T10:15:35;97957.09;;;27.32;38.70
53900;BME280;40509;32.858;-116.858;2023-08-07T10:18:02;97958.72;;;27.33;38.98
53900;BME280;40509;32.858;-116.858;2023-08-07T10:20:29;97957.09;;;27.32;39.33
53900;BME280;40509;32.858;-116.858;2023-08-07T10:22:57;97957.09;;;27.32;38.96
53900;BME280;40509;32.858;-116.858;2023-08-07T10:25:26;97961.94;;;27.29;39.22
53900;BME280;40509;32.858;-116.858;2023-08-07T10:27:55;97952.97;;;27.30;39.47
53900;BME280;40509;32.858;-116.858;2023-08-07T10:30:24;97953.59;;;27.32;39.17
53900;BME280;40509;32.858;-116.858;2023-08-07T10:32:52;97957.09;;;27.32;39.45
53900;BME280;40509;32.858;-116.858;2023-08-07T10:37:52;97949.88;;;27.26;39.17
53900;BME280;40509;32.858;-116.858;2023-08-07T10:40:21;97958.47;;;27.28;39.51
53900;BME280;40509;32.858;-116.858;2023-08-07T10:45:19;97955.00;;;27.27;39.69
53900;BME280;40509;32.858;-116.858;2023-08-07T10:53:28;97960.69;;;27.24;39.38
53900;BME280;40509;32.858;-116.858;2023-08-07T10:55:55;97956.94;;;27.19;39.37
53900;BME280;40509;32.858;-116.858;2023-08-07T10:58:26;97960.69;;;27.24;39.41
53900;BME280;40509;32.858;-116.858;2023-08-07T11:03:42;97958.41;;;27.21;39.50
53900;BME280;40509;32.858;-116.858;2023-08-07T11:06:09;97956.56;;;27.22;39.61
53900;BME280;40509;32.858;-116.858;2023-08-07T11:08:37;97956.94;;;27.19;40.10
53900;BME280;40509;32.858;-116.858;2023-08-07T11:11:05;97956.75;;;27.20;39.65
53900;BME280;40509;32.858;-116.858;2023-08-07T11:13:32;97957.38;;;27.22;39.78
53900;BME280;40509;32.858;-116.858;2023-08-07T11:16:00;97950.81;;;27.18;40.04
53900;BME280;40509;32.858;-116.858;2023-08-07T11:18:27;97954.50;;;27.17;40.06
53900;BME280;40509;32.858;-116.858;2023-08-07T11:20:56;97950.81;;;27.18;39.69
53900;BME280;40509;32.858;-116.858;2023-08-07T11:23:27;97960.59;;;27.18;39.88
53900;BME280;40509;32.858;-116.858;2023-08-07T11:25:54;97953.84;;;27.15;40.12
53900;BME280;40509;32.858;-116.858;2023-08-07T11:28:22;97952.84;;;27.16;39.95
53900;BME280;40509;32.858;-116.858;2023-08-07T11:30:51;97959.78;;;27.17;39.76
53900;BME280;40509;32.858;-116.858;2023-08-07T11:33:18;97958.53;;;27.13;40.24
53900;BME280;40509;32.858;-116.858;2023-08-07T11:35:46;97960.78;;;27.16;39.89
53900;BME280;40509;32.858;-116.858;2023-08-07T11:38:15;97965.63;;;27.13;40.04
53900;BME280;40509;32.858;-116.858;2023-08-07T11:40:42;97969.47;;;27.10;40.46
53900;BME280;40509;32.858;-116.858;2023-08-07T11:43:09;97965.00;;;27.11;40.25
53900;BME280;40509;32.858;-116.858;2023-08-07T11:45:36;97968.66;;;27.09;40.01
53900;BME280;40509;32.858;-116.858;2023-08-07T11:48:03;97967.00;;;27.08;40.01
53900;BME280;40509;32.858;-116.858;2023-08-07T11:50:30;97970.50;;;27.09;40.36
53900;BME280;40509;32.858;-116.858;2023-08-07T11:52:57;97969.41;;;27.03;40.17
53900;BME280;40509;32.858;-116.858;2023-08-07T11:55:28;97969.41;;;27.03;40.19
53900;BME280;40509;32.858;-116.858;2023-08-07T11:57:54;97975.34;;;27.05;40.54
53900;BME280;40509;32.858;-116.858;2023-08-07T12:00:24;97974.53;;;27.05;40.18
53900;BME280;40509;32.858;-116.858;2023-08-07T12:02:53;97971.22;;;27.03;40.16
53900;BME280;40509;32.858;-116.858;2023-08-07T12:05:20;97972.22;;;27.02;40.61
53900;BME280;40509;32.858;-116.858;2023-08-07T12:07:47;97973.88;;;27.03;40.29
53900;BME280;40509;32.858;-116.858;2023-08-07T12:10:14;97981.19;;;27.01;40.47
53900;BME280;40509;32.858;-116.858;2023-08-07T12:12:42;97981.19;;;27.01;40.43
53900;BME280;40509;32.858;-116.858;2023-08-07T12:15:19;97982.03;;;27.01;40.13
53900;BME280;40509;32.858;-116.858;2023-08-07T12:17:46;97990.78;;;27.02;40.61
53900;BME280;40509;32.858;-116.858;2023-08-07T12:20:15;97991.53;;;26.96;40.62
53900;BME280;40509;32.858;-116.858;2023-08-07T12:22:43;97999.91;;;26.99;40.53
53900;BME280;40509;32.858;-116.858;2023-08-07T12:25:10;97992.16;;;26.98;40.53
53900;BME280;40509;32.858;-116.858;2023-08-07T12:27:37;97998.66;;;26.95;40.60
53900;BME280;40509;32.858;-116.858;2023-08-07T12:30:04;98004.13;;;26.93;40.63
53900;BME280;40509;32.858;-116.858;2023-08-07T12:32:31;98003.94;;;26.95;40.40
53900;BME280;40509;32.858;-116.858;2023-08-07T12:35:01;98003.13;;;26.95;40.58
53900;BME280;40509;32.858;-116.858;2023-08-07T12:37:28;98001.09;;;26.97;40.21
53900;BME280;40509;32.858;-116.858;2023-08-07T12:39:55;98007.63;;;26.94;40.22
53900;BME280;40509;32.858;-116.858;2023-08-07T12:42:22;98012.72;;;26.96;40.45
53900;BME280;40509;32.858;-116.858;2023-08-07T12:44:48;98016.56;;;26.93;40.21
53900;BME280;40509;32.858;-116.858;2023-08-07T12:47:15;98025.31;;;26.93;40.23
53900;BME280;40509;32.858;-116.858;2023-08-07T12:49:42;98025.88;;;26.89;40.57